• Join FlightAware (Why Join?)
  • Login
  • US Flag 
04:50PM EDT


 

Airport Tracker/Info


-or-


 

Live Flight TrackerFlight Track Log ✈ N53442 ✈ 12-Jul-2013 ✈ KSFO - PANC

Flight Track Log - Related Links

Times and Time Zones

All times are in EDT time to prevent confusion due to time zone crossing. See the N53442 flight status page for this flight to view local times or setup timezone preferences in your user account.

Time Position Orientation Groundspeed Altitude Reporting Facility
EDT Latitude Longitude Course Direction KTS MPH feet Rate Location/Type
08:06PM 37.6230 -122.3900 73° East 27 31  Level FlightAware
08:06PM 37.6220 -122.3880 122° Southeast 31 36  Level FlightAware
08:07PM 37.6210 -122.3860 122° Southeast 28 32  Level FlightAware
08:07PM 37.6200 -122.3840 122° Southeast 31 36  Level FlightAware
08:08PM 37.6200 -122.3820 90° East 29 33  Level FlightAware
08:08PM 37.6190 -122.3810 142° Southeast 28 32  Level FlightAware
08:09PM 37.6150 -122.3780 149° Southeast 28 32  Level FlightAware
08:09PM 37.6170 -122.3800 322° Northwest 27 31 60 Level FlightAware
08:09PM 37.6150 -122.3800 180° South 22 25 60 Level FlightAware
08:12PM 37.8282 -122.3500 North  Level FlightAware Approximate
08:12PM 37.6090 -122.3840 North 27 31  Level FlightAware
08:12PM 37.6070 -122.3840 180° South 16 18 120 Level FlightAware
08:13PM 37.6060 -122.3830 142° Southeast 17 20 120 Level FlightAware
08:13PM 37.6070 -122.3810 58° Northeast 19 22 180 Level FlightAware
08:14PM 37.6090 -122.3790 38° Northeast 70 81 240 Level FlightAware
08:14PM 37.6150 -122.3750 28° Northeast 130 150 660 Level FlightAware
08:15PM 37.6302 -122.3650 28° Northeast 176 203 400 1,500 Climbing FlightAware ADS-B
08:15PM 37.6354 -122.3610 31° Northeast 183 211 700 2,160 Climbing FlightAware ADS-B
08:15PM 37.6382 -122.3590 29° Northeast 188 216 800 1,320 Climbing FlightAware ADS-B
08:15PM 37.6412 -122.3560 38° Northeast 192 221 900 1,500 Climbing FlightAware ADS-B
08:15PM 37.6459 -122.3500 45° Northeast 194 223 1,100 1,380 Climbing FlightAware ADS-B
08:15PM 37.6496 -122.3450 47° Northeast 202 232 1,200 1,080 Climbing FlightAware ADS-B
08:16PM 37.6601 -122.3300 49° Northeast 222 255 1,500 1,080 Climbing FlightAware ADS-B
08:16PM 37.6682 -122.3190 47° Northeast 238 274 1,700 2,280 Climbing FlightAware ADS-B
08:16PM 37.6799 -122.3040 45° Northeast 236 272 2,500 2,760 Climbing FlightAware ADS-B
08:16PM 37.6925 -122.2880 45° Northeast 237 273 3,200 1,800 Climbing FlightAware ADS-B
08:16PM 37.7055 -122.2710 46° Northeast 263 303 3,500 1,320 Climbing FlightAware ADS-B
08:17PM 37.7188 -122.2530 47° Northeast 277 319 3,900 2,160 Climbing FlightAware ADS-B
08:17PM 37.7352 -122.2320 45° Northeast 278 320 4,700 2,880 Climbing FlightAware ADS-B
08:17PM 37.7444 -122.2240 35° Northeast 277 319 5,200 2,760 Climbing FlightAware ADS-B
08:17PM 37.7652 -122.2140 21° North 276 318 5,900 2,100 Climbing FlightAware ADS-B
08:18PM 37.7837 -122.2140 360° North 287 330 6,300 2,280 Climbing FlightAware ADS-B
08:18PM 37.8106 -122.2150 358° North 289 333 7,200 2,520 Climbing FlightAware ADS-B
08:18PM 37.8314 -122.2150 360° North 294 338 7,800 2,460 Climbing FlightAware ADS-B
08:19PM 37.8528 -122.2160 358° North 296 341 8,500 2,280 Climbing FlightAware ADS-B
08:19PM 37.8737 -122.2160 360° North 300 345 9,000 2,100 Climbing FlightAware ADS-B
08:19PM 37.9264 -122.2160 360° North 301 346 10,400 1,620 Climbing FlightAware ADS-B
08:20PM 37.9747 -122.2170 359° North 343 395 10,900 1,320 Climbing FlightAware ADS-B
08:20PM 38.0258 -122.2170 360° North 359 413 11,800 2,100 Climbing FlightAware ADS-B
08:21PM 38.0886 -122.2180 359° North 365 420 13,300 2,280 Climbing FlightAware ADS-B
08:22PM 38.1730 -122.2180 360° North 378 435 15,100 2,100 Climbing FlightAware
08:23PM 38.2360 -122.2190 359° North 385 443 16,300 1,920 Climbing FlightAware
08:23PM 38.3080 -122.2200 359° North 392 451 17,600 1,740 Climbing FlightAware
08:24PM 38.3850 -122.2280 355° North 404 465 18,700 1,680 Climbing FlightAware
08:25PM 38.4600 -122.2360 355° North 412 474 19,900 1,800 Climbing FlightAware
08:25PM 38.5450 -122.2440 356° North 417 480 21,200 1,680 Climbing FlightAware
08:26PM 38.6250 -122.2530 355° North 424 488 22,300 1,500 Climbing FlightAware
08:27PM 38.7140 -122.2620 355° North 432 497 23,400 1,440 Climbing FlightAware
08:27PM 38.7960 -122.2700 356° North 438 504 24,400 1,440 Climbing FlightAware
08:28PM 38.8660 -122.2780 355° North 441 507 25,200 1,380 Climbing FlightAware
08:29PM 38.9540 -122.2870 355° North 445 512 26,200 1,260 Climbing FlightAware
08:29PM 39.0340 -122.2950 356° North 449 517 27,000 1,140 Climbing FlightAware
08:30PM 39.1230 -122.3050 355° North 454 522 27,800 1,020 Climbing FlightAware
08:31PM 39.2080 -122.3140 355° North 460 529 28,500 900 Climbing FlightAware
08:31PM 39.3040 -122.3240 355° North 467 537 29,100 780 Climbing FlightAware
08:32PM 39.4000 -122.3340 355° North 475 547 29,700 960 Climbing FlightAware
08:33PM 39.4900 -122.3440 355° North 476 548 30,500 1,080 Climbing FlightAware
08:34PM 39.5790 -122.3530 356° North 476 548 31,200 960 Climbing FlightAware
08:34PM 39.6740 -122.3630 355° North 477 549 31,900 960 Climbing FlightAware
08:35PM 39.7640 -122.3720 356° North 475 547 32,600 960 Climbing FlightAware
08:36PM 39.8590 -122.3820 355° North 475 547 33,300 900 Climbing FlightAware
08:36PM 39.9460 -122.3920 355° North 475 547 33,900 480 Climbing FlightAware
08:37PM 40.0440 -122.4020 356° North 475 547 34,000 60 Climbing FlightAware
08:38PM 40.1210 -122.4110 355° North 466 536 34,000  Level FlightAware
08:38PM 40.2200 -122.4220 355° North 464 534 34,000  Level FlightAware
08:39PM 40.3090 -122.4310 356° North 464 534 34,000  Level FlightAware
08:40PM 40.4050 -122.4410 355° North 470 541 34,000  Level FlightAware
08:41PM 40.4940 -122.4510 355° North 471 542 34,000  Level FlightAware
08:41PM 40.5890 -122.4620 355° North 471 542 34,000  Level FlightAware
08:42PM 40.6770 -122.4710 356° North 471 542 34,000  Level FlightAware
08:43PM 40.7650 -122.4810 355° North 464 534 34,000  Level FlightAware
08:43PM 40.8460 -122.4900 355° North 464 534 34,000  Level FlightAware
08:44PM 40.9320 -122.5000 355° North 464 534 34,000  Level FlightAware
08:45PM 41.0240 -122.5100 355° North 471 542 34,000  Level FlightAware
08:46PM 41.1310 -122.5220 355° North 471 542 34,000  Level FlightAware
08:46PM 41.2270 -122.5320 356° North 468 539 34,000  Level FlightAware
08:47PM 41.3250 -122.5430 355° North 468 539 34,000  Level FlightAware
08:48PM 41.4200 -122.5540 355° North 469 540 34,000  Level FlightAware
08:48PM 41.4860 -122.5620 355° North 469 540 34,000  Level FlightAware
08:49PM 41.5770 -122.5720 355° North 34,000  Level FlightAware
08:50PM 41.6680 -122.5820 355° North 474 545 34,000  Level FlightAware
08:50PM 41.7580 -122.5920 355° North 474 545 34,000  Level FlightAware
08:51PM 41.8370 -122.6010 355° North 472 543 34,000  Level FlightAware
08:52PM 41.9310 -122.6110 355° North 471 542 34,000  Level FlightAware
08:52PM 42.0200 -122.6220 355° North 473 544 34,000  Level FlightAware
08:53PM 42.1360 -122.6350 355° North 475 547 34,000  Level FlightAware
08:54PM 42.2280 -122.6460 355° North 473 544 34,000  Level FlightAware
08:55PM 42.3150 -122.6560 355° North 474 545 34,000  Level FlightAware
08:55PM 42.4090 -122.6670 355° North 475 547 34,000  Level FlightAware
08:56PM 42.5030 -122.6770 356° North 473 544 34,000  Level FlightAware
08:57PM 42.5840 -122.6870 355° North 471 542 34,000  Level FlightAware
08:57PM 42.6740 -122.6970 355° North 472 543 34,000  Level FlightAware
08:58PM 42.7480 -122.7060 355° North 472 543 34,000  Level FlightAware
08:59PM 42.8360 -122.7160 355° North 473 544 34,000  Level FlightAware
08:59PM 42.9480 -122.7300 355° North 474 545 34,000  Level FlightAware
09:00PM 43.0250 -122.7390 355° North 474 545 34,000  Level FlightAware
09:01PM 43.1200 -122.7500 355° North 473 544 34,000  Level FlightAware
09:01PM 43.2160 -122.7610 355° North 473 544 34,000  Level FlightAware
09:02PM 43.2980 -122.7710 355° North 472 543 34,000  Level FlightAware
09:03PM 43.3770 -122.7800 355° North 469 540 34,000  Level FlightAware
09:03PM 43.4810 -122.7930 355° North 466 536 34,000  Level FlightAware
09:04PM 43.5670 -122.8030 355° North 463 533 34,000  Level FlightAware
09:05PM 43.6430 -122.8120 355° North 461 531 34,000  Level FlightAware
09:05PM 43.7320 -122.8230 355° North 461 531 34,000  Level FlightAware
09:06PM 43.8270 -122.8350 355° North 459 528 34,000  Level FlightAware
09:07PM 43.9110 -122.8450 355° North 460 529 34,000  Level FlightAware
09:08PM 44.0040 -122.8560 355° North 461 531 34,000  Level FlightAware
09:08PM 44.0910 -122.8670 355° North 461 531 34,000  Level FlightAware
09:09PM 44.1740 -122.8770 355° North 462 532 34,000  Level FlightAware
09:10PM 44.2590 -122.8880 355° North 464 534 34,000  Level FlightAware
09:10PM 44.3460 -122.8980 355° North 464 534 34,000  Level FlightAware
09:11PM 44.4360 -122.9090 355° North 464 534 34,000  Level FlightAware
09:11PM 44.4863 -122.9160 354° North 466 536 34,000  Level FlightAware ADS-B
09:12PM 44.5550 -122.9240 355° North 466 536 34,000  Level FlightAware ADS-B
09:12PM 44.6206 -122.9320 355° North 466 536 34,000  Level FlightAware ADS-B
09:13PM 44.6850 -122.9400 355° North 467 537 34,000  Level FlightAware ADS-B
09:13PM 44.7497 -122.9490 354° North 467 537 34,000  Level FlightAware ADS-B
09:14PM 44.8174 -122.9570 355° North 467 537 34,000  Level FlightAware ADS-B
09:14PM 44.8863 -122.9660 355° North 466 536 34,000  Level FlightAware ADS-B
09:15PM 44.9504 -122.9740 355° North 466 536 34,000  Level FlightAware ADS-B
09:15PM 45.0168 -122.9820 355° North 464 534 34,000  Level FlightAware ADS-B
09:16PM 45.0837 -122.9900 355° North 463 533 34,000  Level FlightAware ADS-B
09:16PM 45.1484 -122.9990 354° North 464 534 34,000  Level FlightAware ADS-B
09:17PM 45.2160 -123.0070 355° North 466 536 34,000  Level FlightAware ADS-B
09:17PM 45.2835 -123.0160 355° North 466 536 34,000  Level FlightAware ADS-B
09:18PM 45.3497 -123.0240 355° North 467 537 34,000  Level FlightAware ADS-B
09:19PM 45.4160 -123.0330 355° North 469 540 34,000  Level FlightAware ADS-B
09:19PM 45.4852 -123.0420 355° North 471 542 34,000  Level FlightAware ADS-B
09:20PM 45.5509 -123.0500 355° North 474 545 34,000  Level FlightAware ADS-B
09:20PM 45.6171 -123.0590 355° North 476 548 34,000  Level FlightAware ADS-B
09:21PM 45.6833 -123.0670 355° North 477 549 34,000  Level FlightAware ADS-B
09:21PM 45.7499 -123.0760 355° North 475 547 34,000  Level FlightAware ADS-B
09:22PM 45.8150 -123.0840 355° North 474 545 34,000  Level FlightAware ADS-B
09:22PM 45.8824 -123.0930 355° North 474 545 34,000  Level FlightAware ADS-B
09:23PM 45.9490 -123.1020 355° North 472 543 34,000  Level FlightAware ADS-B
09:23PM 46.0143 -123.1100 355° North 471 542 34,000  Level FlightAware ADS-B
09:24PM 46.0800 -123.1190 355° North 472 543 34,000  Level FlightAware ADS-B
09:24PM 46.1454 -123.1280 355° North 472 543 34,000  Level FlightAware ADS-B
09:25PM 46.2115 -123.1360 355° North 473 544 34,000  Level FlightAware ADS-B
09:25PM 46.2778 -123.1450 355° North 473 544 34,000  Level FlightAware ADS-B
09:26PM 46.3436 -123.1540 355° North 471 542 34,000  Level FlightAware ADS-B
09:26PM 46.4112 -123.1630 355° North 469 540 34,000  Level FlightAware ADS-B
09:27PM 46.4766 -123.1710 355° North 469 540 34,000  Level FlightAware ADS-B
09:27PM 46.5415 -123.1800 355° North 470 541 34,000  Level FlightAware ADS-B
09:28PM 46.6070 -123.1890 355° North 470 541 34,000  Level FlightAware ADS-B
09:28PM 46.6731 -123.1980 355° North 470 541 34,000  Level FlightAware ADS-B
09:29PM 46.7381 -123.2070 355° North 471 542 34,000  Level FlightAware ADS-B
09:29PM 46.8035 -123.2150 355° North 471 542 34,000  Level FlightAware ADS-B
09:30PM 46.8690 -123.2240 355° North 471 542 34,000  Level FlightAware ADS-B
09:30PM 46.9349 -123.2330 355° North 469 540 34,000  Level FlightAware ADS-B
09:31PM 47.0004 -123.2420 355° North 469 540 34,000  Level FlightAware ADS-B
09:31PM 47.0655 -123.2510 355° North 468 539 34,000  Level FlightAware ADS-B
09:32PM 47.1299 -123.2600 355° North 467 537 34,000  Level FlightAware ADS-B
09:32PM 47.1946 -123.2680 355° North 466 536 34,000  Level FlightAware ADS-B
09:33PM 47.2603 -123.2770 355° North 465 535 34,000  Level FlightAware ADS-B
09:33PM 47.3276 -123.2860 355° North 464 534 34,000  Level FlightAware ADS-B
09:34PM 47.3917 -123.2950 355° North 463 533 34,000  Level FlightAware ADS-B
09:34PM 47.4557 -123.3040 355° North 461 531 34,000  Level FlightAware ADS-B
09:35PM 47.5274 -123.3140 355° North 458 527 34,000  Level FlightAware ADS-B
09:35PM 47.5425 -123.3190 347° North 454 522 34,000  Level FlightAware ADS-B
09:35PM 47.5553 -123.3240 345° North 451 519 34,000  Level FlightAware ADS-B
09:35PM 47.5848 -123.3420 338° Northwest 445 512 34,000  Level FlightAware ADS-B
09:35PM 47.5992 -123.3540 331° Northwest 442 509 34,000  Level FlightAware ADS-B
09:36PM 47.6179 -123.3730 326° Northwest 439 505 34,000  Level FlightAware ADS-B
09:36PM 47.6670 -123.4260 324° Northwest 438 504 34,000  Level FlightAware ADS-B
09:37PM 47.7159 -123.4790 324° Northwest 438 504 34,000  Level FlightAware ADS-B
09:37PM 47.7648 -123.5320 324° Northwest 437 503 34,000  Level FlightAware ADS-B
09:38PM 47.8153 -123.5870 324° Northwest 438 504 34,000  Level FlightAware ADS-B
09:38PM 47.8646 -123.6410 324° Northwest 438 504 34,000  Level FlightAware ADS-B
09:39PM 47.9230 -123.7050 324° Northwest 438 504 34,000  Level FlightAware ADS-B
09:39PM 47.9720 -123.7580 324° Northwest 439 505 34,000  Level FlightAware ADS-B
09:40PM 48.0223 -123.8130 324° Northwest 439 505 34,000  Level FlightAware ADS-B
09:40PM 48.0720 -123.8680 324° Northwest 441 507 34,000  Level FlightAware ADS-B
09:41PM 48.1220 -123.9230 324° Northwest 442 509 34,000  Level FlightAware ADS-B
09:41PM 48.1720 -123.9780 324° Northwest 443 510 34,000  Level FlightAware ADS-B
09:42PM 48.2214 -124.0330 323° Northwest 444 511 34,000  Level FlightAware ADS-B
09:42PM 48.2710 -124.0880 324° Northwest 444 511 34,000  Level FlightAware ADS-B
09:43PM 48.3242 -124.1480 323° Northwest 443 510 34,000  Level FlightAware ADS-B
09:43PM 48.3739 -124.2030 324° Northwest 440 506 34,000  Level FlightAware ADS-B
09:44PM 48.4228 -124.2570 324° Northwest 439 505 34,000  Level FlightAware ADS-B
09:44PM 48.4719 -124.3120 323° Northwest 438 504 34,000  Level FlightAware ADS-B
09:45PM 48.5206 -124.3670 323° Northwest 438 504 34,000  Level FlightAware ADS-B
09:45PM 48.5711 -124.4240 323° Northwest 438 504 34,000  Level FlightAware ADS-B
09:46PM 48.6104 -124.4680 323° Northwest 438 504 34,000  Level FlightAware ADS-B
09:46PM 48.6604 -124.5240 324° Northwest 436 502 34,000  Level FlightAware ADS-B
09:47PM 48.7097 -124.5800 323° Northwest 436 502 34,000  Level FlightAware ADS-B
09:47PM 48.7588 -124.6360 323° Northwest 435 501 34,000  Level FlightAware ADS-B
09:48PM 48.8069 -124.6910 323° Northwest 434 499 34,000  Level FlightAware ADS-B
09:48PM 48.8554 -124.7460 323° Northwest 431 496 34,000  Level FlightAware ADS-B
09:49PM 48.9028 -124.8010 323° Northwest 428 493 34,000  Level FlightAware ADS-B
09:49PM 48.9509 -124.8560 323° Northwest 424 488 34,000  Level FlightAware ADS-B
09:50PM 48.9983 -124.9100 323° Northwest 424 488 34,000  Level FlightAware ADS-B
09:50PM 49.0519 -124.9720 323° Northwest 422 486 34,000  Level FlightAware ADS-B
09:51PM 49.0989 -125.0260 323° Northwest 422 486 34,000  Level FlightAware ADS-B
09:51PM 49.1460 -125.0810 323° Northwest 422 486 34,000  Level FlightAware
09:52PM 49.2140 -125.1600 323° Northwest 421 484 34,000  Level FlightAware
09:53PM 49.2810 -125.2380 323° Northwest 420 483 34,000  Level FlightAware
09:54PM 49.3450 -125.3120 323° Northwest 418 481 34,000  Level FlightAware
09:54PM 49.4060 -125.3840 322° Northwest 418 481 34,000  Level FlightAware
09:55PM 49.4660 -125.4550 322° Northwest 421 484 34,000  Level FlightAware
09:56PM 49.5240 -125.5230 323° Northwest 421 484 34,000  Level FlightAware
09:56PM 49.5900 -125.6010 323° Northwest 424 488 34,000  Level FlightAware
09:57PM 49.6500 -125.6730 322° Northwest 427 491 34,000  Level FlightAware
09:57PM 49.7060 -125.7400 322° Northwest 426 490 34,000  Level FlightAware
09:58PM 49.7830 -125.8320 322° Northwest 426 490 34,000  Level FlightAware
09:59PM 49.8460 -125.9080 322° Northwest 424 488 34,000  Level FlightAware
10:00PM 49.9030 -125.9760 322° Northwest 423 487 34,000  Level FlightAware
10:00PM 49.9790 -126.0670 322° Northwest 421 484 34,000  Level FlightAware
10:01PM 50.0270 -126.1260 322° Northwest 419 482 34,000  Level FlightAware
10:02PM 50.0890 -126.2010 322° Northwest 420 483 34,000  Level FlightAware
10:03PM 50.1760 -126.3070 322° Northwest 418 481 34,000  Level FlightAware
10:03PM 50.2510 -126.4010 321° Northwest 420 483 34,000  Level FlightAware
10:04PM 50.3150 -126.4790 322° Northwest 420 483 34,000  Level FlightAware
10:05PM 50.3820 -126.5610 322° Northwest 422 486 34,000  Level FlightAware
10:05PM 50.4370 -126.6300 321° Northwest 422 486 34,000  Level FlightAware
10:06PM 50.5060 -126.7160 322° Northwest 424 488 34,000  Level FlightAware
10:07PM 50.5720 -126.7990 321° Northwest 424 488 34,000  Level FlightAware
10:08PM 50.6290 -126.8700 322° Northwest 424 488 34,000  Level FlightAware
10:09PM 50.7190 -126.9830 322° Northwest 422 486 34,000  Level FlightAware
10:09PM 50.7820 -127.0620 322° Northwest 421 484 34,000  Level FlightAware
10:10PM 50.8460 -127.1440 321° Northwest 421 484 34,000  Level FlightAware
10:11PM 50.9220 -127.2380 322° Northwest 421 484 34,000  Level FlightAware
10:11PM 50.9690 -127.2960 322° Northwest 421 484 34,000  Level FlightAware
10:12PM 51.0310 -127.3740 322° Northwest 421 484 34,000  Level FlightAware
10:13PM 51.0780 -127.4320 322° Northwest 421 484 34,000  Level FlightAware
10:14PM 51.1410 -127.5100 322° Northwest 421 484 34,000  Level FlightAware
10:14PM 51.1880 -127.5690 322° Northwest 421 484 34,000  Level FlightAware
10:15PM 51.2520 -127.6490 322° Northwest 421 484 34,000  Level FlightAware
10:16PM 51.2990 -127.7070 322° Northwest 421 484 34,000  Level FlightAware
10:16PM 51.3620 -127.7860 322° Northwest 421 484 34,000  Level FlightAware
10:17PM 51.4080 -127.8440 322° Northwest 421 484 34,000  Level FlightAware
10:18PM 51.4710 -127.9230 322° Northwest 421 484 34,000  Level FlightAware
10:18PM 51.5180 -127.9820 322° Northwest 421 484 34,000  Level FlightAware
10:19PM 51.5820 -128.0620 322° Northwest 421 484 34,000  Level FlightAware
10:20PM 51.6290 -128.1210 322° Northwest 421 484 34,000  Level FlightAware
10:21PM 51.7833 -128.4167 322° Northwest 420 483 34,000  Level Vancouver Center
10:22PM 51.8667 -128.5333 319° Northwest 420 483 34,000  Level Vancouver Center
10:23PM 51.9667 -128.6500 324° Northwest 410 472 34,000  Level Vancouver Center
10:24PM 52.0500 -128.7667 319° Northwest 410 472 34,000  Level Vancouver Center
10:25PM 52.1333 -128.8833 319° Northwest 410 472 34,000  Level Vancouver Center
10:26PM 52.2333 -129.0000 324° Northwest 410 472 34,000  Level Vancouver Center
10:27PM 52.3167 -129.1333 316° Northwest 410 472 34,000  Level Vancouver Center
10:28PM 52.4000 -129.2500 320° Northwest 400 460 34,000  Level Vancouver Center
10:29PM 52.4833 -129.3667 320° Northwest 400 460 34,000  Level Vancouver Center
10:30PM 52.5667 -129.4833 320° Northwest 400 460 34,000  Level Vancouver Center
10:31PM 52.6500 -129.6000 320° Northwest 400 460 34,000  Level Vancouver Center
10:32PM 52.7333 -129.7333 316° Northwest 400 460 34,000  Level Vancouver Center
10:33PM 52.8167 -129.8500 320° Northwest 410 472 34,000  Level Vancouver Center
10:34PM 52.9000 -129.9667 320° Northwest 400 460 34,000  Level Vancouver Center
10:35PM 52.9833 -130.1000 316° Northwest 400 460 34,000  Level Vancouver Center
10:36PM 53.0833 -130.2167 325° Northwest 400 460 34,000  Level Vancouver Center
10:37PM 53.1500 -130.3500 310° West 400 460 34,000  Level Vancouver Center
10:38PM 53.2500 -130.4667 325° Northwest 390 449 34,000  Level Vancouver Center
10:39PM 53.3167 -130.5667 318° Northwest 390 449 34,000  Level Vancouver Center
10:40PM 53.4000 -130.6833 320° Northwest 390 449 34,000  Level Vancouver Center
10:41PM 53.4833 -130.8167 316° Northwest 390 449 34,000  Level Vancouver Center
10:42PM 53.5500 -130.9333 314° West 390 449 34,000  Level Vancouver Center
10:43PM 53.6500 -131.0667 322° Northwest 400 460 34,000  Level Vancouver Center
10:44PM 53.7167 -131.1667 318° Northwest 390 449 34,000  Level Vancouver Center
10:45PM 53.8000 -131.3167 313° West 390 449 34,000  Level Vancouver Center
10:46PM 53.8833 -131.4167 325° Northwest 390 449 34,000  Level Vancouver Center
10:47PM 53.9667 -131.5500 317° Northwest 390 449 34,000  Level Vancouver Center
10:48PM 54.0500 -131.6833 317° Northwest 390 449 34,000  Level Vancouver Center
10:49PM 54.1167 -131.8000 314° West 390 449 34,000  Level Vancouver Center
10:50PM 54.2000 -131.9333 317° Northwest 390 449 34,000  Level Vancouver Center
10:51PM 54.2833 -132.0667 317° Northwest 390 449 34,000  Level Vancouver Center
10:52PM 54.3667 -132.1667 325° Northwest 390 449 34,000  Level Vancouver Center
10:53PM 54.4333 -132.3000 311° West 390 449 34,000  Level Vancouver Center
10:54PM 54.5167 -132.4333 317° Northwest 390 449 34,000  Level Vancouver Center
10:55PM 54.5833 -132.5667 311° West 390 449 34,000  Level Vancouver Center
10:56PM 54.6833 -132.7000 322° Northwest 390 449 34,000  Level Vancouver Center
10:57PM 54.7500 -132.8333 311° West 390 449 34,000  Level Vancouver Center
10:58PM 54.8333 -132.9000 335° Northwest 390 449 34,000  Level Anchorage Center
10:59PM 54.9167 -133.0333 317° Northwest 390 449 34,000  Level Anchorage Center
11:00PM 55.0000 -133.1667 317° Northwest 400 460 34,000  Level Anchorage Center
11:01PM 55.0833 -133.3000 318° Northwest 400 460 34,000  Level Anchorage Center
11:02PM 55.1500 -133.4333 311° West 400 460 34,000  Level Anchorage Center
11:03PM 55.2333 -133.5500 321° Northwest 390 449 34,000  Level Anchorage Center
11:04PM 55.3000 -133.6833 311° West 390 449 34,000  Level Anchorage Center
11:05PM 55.3833 -133.8167 318° Northwest 400 460 34,000  Level Anchorage Center
11:06PM 55.4667 -133.9500 318° Northwest 390 449 34,000  Level Anchorage Center
11:07PM 55.5333 -134.0833 311° West 390 449 34,000  Level Anchorage Center
11:08PM 55.6167 -134.2167 318° Northwest 400 460 34,000  Level Anchorage Center
11:09PM 55.7000 -134.3500 318° Northwest 400 460 34,000  Level Anchorage Center
11:10PM 55.7667 -134.4833 312° West 390 449 34,000  Level Anchorage Center
11:11PM 55.8500 -134.6167 318° Northwest 390 449 34,000  Level Anchorage Center
11:12PM 55.9333 -134.7500 318° Northwest 390 449 34,000  Level Anchorage Center
11:13PM 56.0000 -134.9000 309° West 390 449 34,000  Level Anchorage Center
11:14PM 56.0833 -135.0333 318° Northwest 390 449 34,000  Level Anchorage Center
11:15PM 56.1500 -135.2333 301° West 390 449 34,000  Level Vancouver Center
11:16PM 56.2333 -135.3833 315° West 390 449 34,000  Level Vancouver Center
11:17PM 56.3167 -135.5167 318° Northwest 390 449 34,000  Level Vancouver Center
11:18PM 56.3667 -135.6333 308° West 390 449 34,000  Level Vancouver Center
11:19PM 56.4500 -135.7833 315° West 390 449 34,000  Level Vancouver Center
11:20PM 56.5500 -135.8833 331° Northwest 390 449 34,000  Level Anchorage Center
11:21PM 56.6167 -136.0333 309° West 400 460 34,000  Level Anchorage Center
11:22PM 56.7000 -136.1833 315° West 390 449 34,000  Level Anchorage Center
11:23PM 56.7833 -136.3167 319° Northwest 400 460 34,000  Level Anchorage Center
11:24PM 56.8333 -136.5167 295° West 400 460 34,000  Level Vancouver Center
11:25PM 56.9167 -136.6667 316° Northwest 400 460 34,000  Level Vancouver Center
11:26PM 57.0000 -136.8167 316° Northwest 400 460 34,000  Level Vancouver Center
11:27PM 57.0667 -136.9667 309° West 400 460 34,000  Level Vancouver Center
11:28PM 57.1500 -137.1167 316° Northwest 400 460 34,000  Level Vancouver Center
11:29PM 57.2167 -137.2667 309° West 400 460 34,000  Level Vancouver Center
11:30PM 57.3000 -137.4167 316° Northwest 400 460 34,000  Level Vancouver Center
11:31PM 57.3667 -137.5667 310° West 400 460 34,000  Level Vancouver Center
11:32PM 57.4333 -137.7167 310° West 400 460 34,000  Level Vancouver Center
11:33PM 57.5333 -137.8167 332° Northwest 390 449 34,000  Level Anchorage Center
11:34PM 57.6167 -137.9667 316° Northwest 400 460 34,000  Level Anchorage Center
11:35PM 57.6833 -138.1167 310° West 410 472 34,000  Level Anchorage Center
11:36PM 57.7667 -138.2833 313° West 400 460 34,000  Level Anchorage Center
11:37PM 57.8333 -138.4333 310° West 400 460 34,000  Level Anchorage Center
11:38PM 57.9167 -138.5833 316° Northwest 400 460 34,000  Level Anchorage Center
11:39PM 57.9833 -138.7500 307° West 400 460 34,000  Level Anchorage Center
11:40PM 58.0667 -138.9167 313° West 400 460 34,000  Level Anchorage Center
11:41PM 58.1333 -139.0667 310° West 400 460 34,000  Level Anchorage Center
11:42PM 58.2167 -139.2333 314° West 410 472 34,000  Level Anchorage Center
11:43PM 58.2833 -139.3833 310° West 400 460 34,000  Level Anchorage Center
11:44PM 58.3667 -139.5500 314° West 410 472 34,000  Level Anchorage Center
11:45PM 58.4333 -139.7167 307° West 410 472 34,000  Level Anchorage Center
11:46PM 58.5167 -139.8833 314° West 410 472 34,000  Level Anchorage Center
11:47PM 58.5833 -140.0500 308° West 410 472 34,000  Level Anchorage Center
11:48PM 58.6667 -140.2167 314° West 410 472 34,000  Level Anchorage Center
11:49PM 58.7333 -140.3833 308° West 410 472 34,000  Level Anchorage Center
11:50PM 58.8167 -140.5667 311° West 410 472 34,000  Level Anchorage Center
11:51PM 58.8833 -140.7500 305° West 420 483 34,000  Level Anchorage Center
11:52PM 58.9333 -140.9500 296° West 420 483 34,000  Level Anchorage Center
11:53PM 59.0000 -141.1333 305° West 420 483 34,000  Level Anchorage Center
11:54PM 59.0667 -141.3167 305° West 420 483 34,000  Level Anchorage Center
11:55PM 59.1333 -141.5167 303° West 420 483 34,000  Level Anchorage Center
11:56PM 59.2000 -141.7000 305° West 420 483 34,000  Level Anchorage Center
11:57PM 59.2667 -141.9000 303° West 420 483 34,000  Level Anchorage Center
11:58PM 59.3333 -142.0833 306° West 420 483 34,000  Level Anchorage Center
11:59PM 59.4000 -142.2833 303° West 420 483 34,000  Level Anchorage Center
12:00AM 59.4500 -142.4833 296° West 430 495 34,000  Level Anchorage Center
12:01AM 59.5167 -142.6833 303° West 430 495 34,000  Level Anchorage Center
12:02AM 59.5833 -142.8833 303° West 420 483 34,000  Level Anchorage Center
12:03AM 59.6500 -143.1167 300° West 430 495 34,000  Level Anchorage Center
12:04AM 59.7000 -143.3000 298° West 430 495 34,000  Level Anchorage Center
12:05AM 59.7500 -143.5333 293° West 430 495 34,000  Level Anchorage Center
12:06AM 59.8000 -143.7500 295° West 430 495 34,000  Level Anchorage Center
12:07AM 59.8667 -143.9667 302° West 430 495 34,000  Level Anchorage Center
12:08AM 59.9167 -144.1833 295° West 440 506 34,000  Level Anchorage Center
12:09AM 59.9667 -144.4167 293° West 440 506 34,000  Level Anchorage Center
12:10AM 60.0167 -144.6333 295° West 440 506 34,000  Level Anchorage Center
12:11AM 60.0833 -144.8500 302° West 440 506 34,000  Level Anchorage Center
12:12AM 60.1333 -145.0667 295° West 440 506 34,000  Level Anchorage Center
12:13AM 60.1833 -145.3000 293° West 440 506 34,000  Level Anchorage Center
12:14AM 60.2333 -145.5167 295° West 450 518 34,000  Level Anchorage Center
12:15AM 60.2833 -145.7500 293° West 450 518 34,000  Level Anchorage Center
12:20AM 60.5620 -147.0030 293° West 459 528 34,000  Level FlightAware
12:21AM 60.5940 -147.1650 292° West 460 529 34,000  Level FlightAware
12:22AM 60.6280 -147.3380 292° West 462 532 34,000 -120 Level FlightAware
12:22AM 60.6600 -147.5000 292° West 460 529 33,900 -2,040 Descending FlightAware
12:23AM 60.6950 -147.6810 292° West 480 552 31,200 -3,720 Descending FlightAware
12:24AM 60.7250 -147.8370 292° West 490 564 29,000 -3,240 Descending FlightAware
12:24AM 60.7580 -148.0090 292° West 486 559 27,100 -2,760 Descending FlightAware
12:25AM 60.7890 -148.1760 291° West 478 550 25,300 -2,760 Descending FlightAware
12:26AM 60.8220 -148.3510 291° West 467 537 23,400 -2,700 Descending FlightAware
12:26AM 60.8510 -148.5060 291° West 456 525 21,800 -2,580 Descending FlightAware
12:27AM 60.8790 -148.6590 291° West 444 511 20,200 -2,520 Descending FlightAware
12:28AM 60.9080 -148.8200 290° West 430 495 18,500 -2,520 Descending FlightAware
12:28AM 60.9390 -148.9880 291° West 417 480 16,600 -2,460 Descending FlightAware
12:29AM 60.9670 -149.1440 290° West 406 467 14,900 -2,040 Descending FlightAware
12:30AM 60.9930 -149.2900 290° West 383 441 13,800 -1,260 Descending FlightAware
12:30AM 61.0180 -149.4310 290° West 349 402 13,200 -720 Descending FlightAware
12:31AM 61.0350 -149.5280 290° West 325 374 12,900 -960 Descending FlightAware
12:32AM 61.0570 -149.6500 290° West 305 351 12,000 -1,080 Descending FlightAware
12:32AM 61.0770 -149.7600 291° West 277 319 11,400 -1,020 Descending FlightAware
12:33AM 61.0830 -149.8100 284° West 267 307 11,000 -1,620 Descending FlightAware
12:33AM 61.0840 -149.9150 271° West 249 287 9,700 -1,860 Descending FlightAware
12:34AM 61.0840 -149.9440 270° West 248 285 9,300 -1,500 Descending FlightAware
12:34AM 61.0850 -150.0080 272° West 238 274 8,700 -1,320 Descending FlightAware
12:35AM 61.0850 -150.0690 270° West 223 257 8,100 -1,620 Descending FlightAware
12:35AM 61.0860 -150.1300 272° West 226 260 7,200 -1,920 Descending FlightAware
12:35AM 61.0870 -150.1650 273° West 223 257 6,700 -1,740 Descending FlightAware
12:36AM 61.0870 -150.2170 270° West 211 243 6,000 -1,980 Descending FlightAware
12:36AM 61.0900 -150.2760 276° West 208 239 4,900 -2,340 Descending FlightAware
12:36AM 61.0970 -150.2950 307° West 205 236 4,400 -2,160 Descending FlightAware
12:37AM 61.1100 -150.3050 340° North 204 235 3,900 -2,100 Descending FlightAware
12:37AM 61.1320 -150.3080 356° North 204 235 3,100 -2,280 Descending FlightAware
12:37AM 61.1540 -150.2840 28° Northeast 207 238 2,100 -2,220 Descending FlightAware
12:38AM 61.1600 -150.2660 55° Northeast 205 236 1,700 -1,080 Descending FlightAware
12:38AM 61.1670 -150.2390 62° Northeast 194 223 1,600 -240 Descending FlightAware
12:38AM 61.1680 -150.2210 83° East 192 221 1,600 -480 Level FlightAware
12:39AM 61.1680 -150.1680 90° East 176 203 1,300 -780 Descending FlightAware
12:39AM 61.1680 -150.1520 90° East 165 190 1,100 -840 Descending FlightAware
12:39AM 61.1680 -150.0880 90° East 161 185 600 -780 Descending FlightAware
12:40AM 61.1680 -150.0520 90° East 161 185 300 -780 Descending FlightAware
12:40AM 61.1680 -150.0400 90° East 159 183 200 -780 Descending FlightAware
12:41AM 61.1680 -150.0030 90° East 56 64 -360 Descending FlightAware
12:41AM 61.1690 -149.9940 77° East 23 26  Level FlightAware
12:41AM 61.1700 -149.9930 26° Northeast 21 24  Level FlightAware
12:42AM 61.1710 -149.9900 55° Northeast 31 36  Level FlightAware
12:44AM 61.1667 -149.9833 270° West  Level FlightAware Approximate
12:45AM 61.1741 -149.9982 270° West  Level Estimated
12:46AM 61.1741 -149.9982 270° West  Level Estimated
12:47AM 61.1741 -149.9982 270° West  Level Estimated
12:48AM 61.1741 -149.9982 270° West  Level Estimated
12:49AM 61.1741 -149.9982 270° West  Level Estimated
12:50AM 61.1741 -149.9982 270° West  Level Estimated